Weather observations for the past three days for
Baltimore, Inner Harbor
Imperial (Metric)
Date Time (edt) Wind (mph) Vis. (mi.) Weather Sky Cond. Temperature (ºF) Relative Humidity Wind Chill (°F) Heat Index (°F) Pressure Precipitation (in)
Air Dwpt 6 hour altimeter (in) sea level (mb) 1 hr 3 hr 6 hr
Max. Min.
30 23:53 Calm 0.00 NULL NULL 80.1 68 67% 83 30.09 1018.9
30 22:53 Calm 0.00 NULL NULL 80.1 69.1 69% 83 30.1 1019.2
30 21:53 Calm 0.00 NULL NULL 81 72 74% 85 30.1 1019.3
30 20:53 Calm 0.00 NULL NULL 82.9 73 72% 89 30.09 1019.0
30 19:53 Calm 0.00 NULL NULL 84 73 91 84 70% 90 30.07 1018.2
30 18:53 Calm 0.00 NULL NULL 86 66.9 53% 89 30.07 1018.2
30 17:53 Calm 0.00 NULL NULL 87.1 66.9 51% 90 30.07 1018.1
30 16:53 Calm 0.00 NULL NULL 89.1 66.9 48% 92 30.06 1018.0
30 15:53 Calm 0.00 NULL NULL 90 68 48% 94 30.07 1018.1
30 14:53 Calm 0.00 NULL NULL 88 68 52% 92 30.11 1019.5
30 13:53 Calm 0.00 NULL NULL 87.1 66.9 88 73.9 51% 90 30.13 1020.2
30 12:53 Calm 0.00 NULL NULL 84.9 68 57% 88 30.15 1020.9
30 11:53 Calm 0.00 NULL NULL 82 69.1 65% 85 30.18 1021.8
30 10:53 Calm 0.00 NULL NULL 79 69.1 72% 82 30.17 1021.8
30 09:53 Calm 0.00 NULL NULL 77 69.1 77% 79 30.18 1022.0
30 08:53 Calm 0.00 NULL NULL 75.9 69.1 79% 77 30.2 1022.8
30 07:53 Calm 0.00 NULL NULL 73.9 69.1 73.9 71.1 85% 30.21 1022.9
30 06:53 Calm 0.00 NULL NULL 73 68 84% 30.21 1022.9
30 05:53 Calm 0.00 NULL NULL 73 64 74% 30.21 1022.8
30 04:53 Calm 0.00 NULL NULL 73 63 71% 30.2 1022.6
30 03:53 Calm 0.00 NULL NULL 72 63 73% 30.2 1022.8
30 02:53 Calm 0.00 NULL NULL 73 62.1 69% 30.21 1023.0
30 01:53 Calm 0.00 NULL NULL 72 63 77 71.1 73% 30.22 1023.3
30 00:53 Calm 0.00 NULL NULL 72 63 73% 30.22 1023.3
29 23:53 Calm 0.00 NULL NULL 72 59 64% 30.21 1023.1
29 22:53 Calm 0.00 NULL NULL 73 57 57% 30.21 1022.9
29 21:53 Calm 0.00 NULL NULL 75 57 54% 78 30.21 1023.0
29 20:53 Calm 0.00 NULL NULL 75 55.9 52% 78 30.19 1022.4
29 19:53 Calm 0.00 NULL NULL 75.9 55.9 84 75.9 50% 78 30.2 1022.4
29 18:53 Calm 0.00 NULL NULL 79 55.9 45% 80 30.2 1022.5
29 17:53 Calm 0.00 NULL NULL 81 57 44% 81 30.19 1022.4
29 16:53 Calm 0.00 NULL NULL 81 57.9 45% 81 30.19 1022.3
29 15:53 Calm 0.00 NULL NULL 84 57.9 41% 83 30.22 1023.2
29 13:53 Calm 0.00 NULL NULL 82 53.1 82 69.1 37% 81 30.24 1023.9
29 12:53 Calm 0.00 NULL NULL 79 51.1 38% 79 30.26 1024.7
29 11:53 Calm 0.00 NULL NULL 78.1 51.1 39% 79 30.27 1025.1
29 10:53 Calm 0.00 NULL NULL 75.9 50 40% 78 30.26 1024.7
29 09:53 Calm 0.00 NULL NULL 73 48.9 43% 30.25 1024.4
29 08:53 Calm 0.00 NULL NULL 70 48.9 47% 30.25 1024.1
29 07:53 Calm 0.00 NULL NULL 69.1 52 75 68 55% 30.24 1024.0
29 06:53 Calm 0.00 NULL NULL 68 55.9 65% 30.22 1023.4
29 05:53 Calm 0.00 NULL NULL 69.1 59 70% 30.2 1022.6
29 04:53 Calm 0.00 NULL NULL 70 61 73% 30.18 1022.1
29 03:53 Calm 0.00 NULL NULL 72 62.1 71% 30.15 1021.1
29 02:53 Calm 0.00 NULL NULL 73.9 63 69% 30.13 1020.3
29 01:53 Calm 0.00 NULL NULL 73.9 64.9 82 73.9 74% 30.12 1019.9
29 00:53 Calm 0.00 NULL NULL 75.9 66.9 74% 77 30.11 1019.7
28 23:53 Calm 0.00 NULL NULL 77 66.9 71% 79 30.1 1019.1
28 22:53 Calm 0.00 NULL NULL 78.1 66 67% 80 30.09 1018.9
28 21:53 Calm 0.00 NULL NULL 79 66 65% 81 30.08 1018.6
28 20:53 Calm 0.00 NULL NULL 81 66 61% 83 30.06 1017.9
28 19:53 Calm 0.00 NULL NULL 82 64.9 87.1 82 56% 84 30.04 1017.2
28 18:53 Calm 0.00 NULL NULL 82.9 64 53% 84 30.03 1016.9
28 17:53 Calm 0.00 NULL NULL 84.9 66 53% 87 30.03 1016.7
28 16:53 Calm 0.00 NULL NULL 84.9 64.9 51% 87 30.02 1016.5
28 15:53 Calm 0.00 NULL NULL 87.1 64.9 48% 89 30.01 1016.2
28 14:53 Calm 0.00 NULL NULL 86 64.9 49% 88 30.01 1016.3
28 13:53 Calm 0.00 NULL NULL 84.9 68 86 75 57% 88 30.01 1016.3
28 12:53 Calm 0.00 NULL NULL 84 70 63% 88 30.02 1016.6
28 11:53 Calm 0.00 NULL NULL 81 71.1 72% 85 30.04 1017.2
28 10:53 Calm 0.00 NULL NULL 78.1 70 76% 80 30.05 1017.4
28 09:53 Calm 0.00 NULL NULL 75.9 70 82% 77 30.03 1016.8
28 08:53 Calm 0.00 NULL NULL 75.9 71.1 85% 76 30 1015.9
28 07:53 Calm 0.00 NULL NULL 75 70 75.9 73 84% 75 29.99 1015.5
28 06:53 Calm 0.00 NULL NULL 73.9 70 88% 29.96 1014.5
28 05:53 Calm 0.00 NULL NULL 73 70 90% 29.95 1014.2
28 04:53 Calm 0.00 NULL NULL 73.9 70 88% 29.95 1014.2
28 03:53 Calm 0.00 NULL NULL 75 71.1 88% 75 29.95 1014.1
28 02:53 Calm 0.00 NULL NULL 75.9 71.1 85% 76 29.95 1014.1
28 01:53 Calm 0.00 NULL NULL 75.9 69.1 81 73 79% 77 29.97 1014.7 0.01
28 00:53 Calm 0.00 NULL NULL 75 68 79% 76 29.96 1014.6
Date Time (edt) Wind (mph) Vis. (mi.) Weather Sky Cond. Air Dwpt Max. Min. Relative Humidity Wind Chill (°F) Heat Index (°F) altimeter (in) sea level (mb) 1 hr 3 hr 6 hr
6 hour
Temperature (ºF) Pressure Precipitation (in)